Corinth, Texas
Current Conditions -  °F | °C
As of 11:53 PM on Sunday 25 Jan 2015 (Local Time) from KDTO Reporting Station
Clear Clear  
Wind Chill: 36°   Ceiling: Unl
Heat Index: 39°   Visibility: 10mi
Dew Point: 27°   Wind: 5mph
Humidity: 62%   Direction: 330°NNW
Pressure: 30.2"   Gusts: NA
Location:  33.1457°N, 97.0902°W
Report Text: KDTO 260553Z AUTO 33004KT 10SM CLR 04/M03 A3020 RMK AO2 SLP227 T00391028 10139 20039 401670006 51020
Loading
Personal Weather Stations






























Interactive Weather Map New forecast layout! Learn more

10-Day Weather Forecast

Advertisements
Track Severe Weather on mobile